RJAZ(METAR)
05/21 16:00
RJAZ 210700Z 11016KT 9999 RA SCT014 BKN020 16/13 Q1008 RMK A2977=
戻る
トップページへ戻る
IMOC Co,.Ltd.